Time;durP1;ratioP1;P1;durP2;ratioP2;P2;SDS_P1;SDS_P2;PMS_P1;PMS_P2;Temp;Humidity;BMP_temperature;BMP_pressure;BME280_temperature;BME280_humidity;BME280_pressure;Samples;Min_cycle;Max_cycle;Signal;HPM_P1;HPM_P2
2022/09/26 00:02:17;;;;;;;1.80;1.60;;;;;;;;;;5021508;28;20286;-57
2022/09/26 00:04:43;;;;;;;1.67;1.57;;;;;;;;;;5025495;28;20717;-56
2022/09/26 00:07:10;;;;;;;2.17;1.83;;;;;;;;;;5025889;28;20227;-57
2022/09/26 00:09:36;;;;;;;2.27;1.60;;;;;;;;;;5029628;28;20286;-58
2022/09/26 00:12:03;;;;;;;2.70;1.67;;;;;;;;;;5026308;28;20282;-58
2022/09/26 00:14:29;;;;;;;2.00;1.77;;;;;;;;;;5029451;28;20354;-58
2022/09/26 00:16:56;;;;;;;2.00;1.60;;;;;;;;;;5023260;28;20307;-58
2022/09/26 00:19:23;;;;;;;1.50;1.40;;;;;;;;;;5021666;28;20275;-58
2022/09/26 00:21:50;;;;;;;1.80;1.53;;;;;;;;;;5027982;28;20200;-58
2022/09/26 00:24:16;;;;;;;2.00;1.80;;;;;;;;;;5027711;28;20687;-58
2022/09/26 00:26:43;;;;;;;1.60;1.47;;;;;;;;;;5025802;28;20306;-58
2022/09/26 00:29:11;;;;;;;2.00;1.80;;;;;;;;;;5029621;28;20291;-56
2022/09/26 00:31:40;;;;;;;1.60;1.50;;;;;;;;;;5026194;28;20215;-56
2022/09/26 00:34:06;;;;;;;1.70;1.50;;;;;;;;;;5024949;28;20224;-57
2022/09/26 00:36:33;;;;;;;1.60;1.50;;;;;;;;;;5019145;28;20267;-58
2022/09/26 00:39:05;;;;;;;1.77;1.60;;;;;;;;;;5026649;28;20200;-56
2022/09/26 00:41:31;;;;;;;1.50;1.40;;;;;;;;;;5028471;28;20225;-58
2022/09/26 00:43:58;;;;;;;2.40;1.80;;;;;;;;;;5027166;28;20278;-58
2022/09/26 00:46:43;;;;;;;2.03;1.63;;;;;;;;;;5024065;28;20225;-57
2022/09/26 00:49:27;;;;;;;3.37;1.77;;;;;;;;;;5014163;28;20199;-56
2022/09/26 00:51:59;;;;;;;1.80;1.70;;;;;;;;;;5007325;28;20579;-54
2022/09/26 00:54:27;;;;;;;1.77;1.57;;;;;;;;;;5022053;28;20283;-58
2022/09/26 00:56:59;;;;;;;2.30;1.50;;;;;;;;;;5005325;28;20302;-55
2022/09/26 00:59:29;;;;;;;2.00;1.80;;;;;;;;;;5010504;28;20302;-58
2022/09/26 01:01:57;;;;;;;2.17;1.57;;;;;;;;;;5020721;28;20215;-58
2022/09/26 01:04:27;;;;;;;1.70;1.50;;;;;;;;;;5021380;28;20204;-57
2022/09/26 01:06:55;;;;;;;2.00;1.50;;;;;;;;;;5008383;28;20314;-57
2022/09/26 01:09:21;;;;;;;2.17;1.57;;;;;;;;;;5006070;28;20286;-57
2022/09/26 01:11:48;;;;;;;1.50;1.40;;;;;;;;;;5010575;28;20279;-57
2022/09/26 01:14:15;;;;;;;2.77;1.80;;;;;;;;;;5022380;28;20666;-57
2022/09/26 01:16:43;;;;;;;2.83;1.60;;;;;;;;;;5008454;28;20650;-57
2022/09/26 01:19:28;;;;;;;1.20;1.10;;;;;;;;;;5010365;28;20242;-56
2022/09/26 01:22:25;;;;;;;1.30;1.20;;;;;;;;;;5010816;28;20234;-56
2022/09/26 01:25:14;;;;;;;1.43;1.33;;;;;;;;;;5019175;28;20230;-57
2022/09/26 01:28:00;;;;;;;1.63;1.30;;;;;;;;;;4975758;28;20302;-57
2022/09/26 01:30:42;;;;;;;1.80;1.60;;;;;;;;;;5003844;28;20226;-57
2022/09/26 01:33:32;;;;;;;1.70;1.60;;;;;;;;;;5009559;28;20206;-57
2022/09/26 01:36:10;;;;;;;2.10;1.70;;;;;;;;;;5018612;28;20294;-56
2022/09/26 01:39:04;;;;;;;2.13;1.70;;;;;;;;;;5010211;28;20283;-57
2022/09/26 01:41:49;;;;;;;1.43;1.30;;;;;;;;;;5023969;28;20667;-58
2022/09/26 01:44:26;;;;;;;1.57;1.37;;;;;;;;;;5006223;28;20195;-55
2022/09/26 01:47:12;;;;;;;1.67;1.50;;;;;;;;;;5023792;28;20237;-56
2022/09/26 01:49:57;;;;;;;2.13;1.50;;;;;;;;;;5024055;28;20299;-55
2022/09/26 01:52:41;;;;;;;2.03;1.57;;;;;;;;;;5016761;28;20206;-56
2022/09/26 01:55:14;;;;;;;1.60;1.50;;;;;;;;;;5004990;28;20278;-56
2022/09/26 01:57:44;;;;;;;1.50;1.30;;;;;;;;;;5002404;28;20192;-54
2022/09/26 02:00:11;;;;;;;2.33;1.70;;;;;;;;;;5002250;28;20235;-57
2022/09/26 02:02:43;;;;;;;1.50;1.40;;;;;;;;;;5021615;28;20294;-57
2022/09/26 02:05:19;;;;;;;1.50;1.40;;;;;;;;;;5009492;28;20199;-54
2022/09/26 02:07:57;;;;;;;1.60;1.50;;;;;;;;;;5007537;28;20302;-56
2022/09/26 02:10:31;;;;;;;1.73;1.60;;;;;;;;;;5003136;28;20203;-57
2022/09/26 02:13:15;;;;;;;1.53;1.40;;;;;;;;;;5023133;28;20282;-55
2022/09/26 02:15:43;;;;;;;1.87;1.40;;;;;;;;;;5027504;28;20654;-55
2022/09/26 02:18:14;;;;;;;1.70;1.47;;;;;;;;;;5008620;28;20247;-55
2022/09/26 02:20:44;;;;;;;1.53;1.40;;;;;;;;;;5003124;28;20224;-54
2022/09/26 02:23:11;;;;;;;2.17;1.30;;;;;;;;;;5005490;28;20292;-57
2022/09/26 02:25:38;;;;;;;1.37;1.20;;;;;;;;;;4999223;28;22054;-54
2022/09/26 02:28:05;;;;;;;1.50;1.30;;;;;;;;;;5019013;28;20306;-56
2022/09/26 02:30:31;;;;;;;1.50;1.40;;;;;;;;;;5022378;28;20544;-56
2022/09/26 02:32:58;;;;;;;2.07;1.47;;;;;;;;;;5007906;28;20721;-55
2022/09/26 02:38:10;;;;;;;1.53;1.30;;;;;;;;;;5026838;28;20750;-57
2022/09/26 02:40:48;;;;;;;1.63;1.40;;;;;;;;;;5018961;28;20279;-54
2022/09/26 02:43:33;;;;;;;1.33;1.23;;;;;;;;;;5003250;28;20278;-56
2022/09/26 02:46:32;;;;;;;1.63;1.40;;;;;;;;;;5022475;28;20298;-56
2022/09/26 02:49:18;;;;;;;1.30;1.20;;;;;;;;;;5018938;28;20235;-58
2022/09/26 02:52:16;;;;;;;1.47;1.30;;;;;;;;;;5026808;28;20282;-54
2022/09/26 02:55:07;;;;;;;1.57;1.27;;;;;;;;;;5017698;28;20633;-54
2022/09/26 02:57:40;;;;;;;1.50;1.30;;;;;;;;;;5022651;28;20238;-57
2022/09/26 03:00:17;;;;;;;1.50;1.37;;;;;;;;;;5028829;28;20291;-55
2022/09/26 03:02:49;;;;;;;1.40;1.30;;;;;;;;;;5012042;28;20235;-56
2022/09/26 03:05:21;;;;;;;1.63;1.30;;;;;;;;;;5005120;28;20247;-56
2022/09/26 03:07:55;;;;;;;1.43;1.33;;;;;;;;;;5000699;28;20302;-55
2022/09/26 03:10:24;;;;;;;1.57;1.43;;;;;;;;;;5006816;28;20344;-57
2022/09/26 03:12:51;;;;;;;1.53;1.43;;;;;;;;;;5012240;28;20734;-56
2022/09/26 03:15:18;;;;;;;1.87;1.50;;;;;;;;;;5007548;28;20228;-57
2022/09/26 03:17:50;;;;;;;1.40;1.30;;;;;;;;;;5002533;28;20283;-57
2022/09/26 03:20:21;;;;;;;1.30;1.20;;;;;;;;;;5003317;28;20661;-56
2022/09/26 03:22:47;;;;;;;1.43;1.23;;;;;;;;;;5006334;28;20282;-57
2022/09/26 03:25:17;;;;;;;1.87;1.43;;;;;;;;;;5011559;28;20249;-57
2022/09/26 03:27:44;;;;;;;1.60;1.37;;;;;;;;;;5010420;28;20296;-56
2022/09/26 03:30:11;;;;;;;1.17;1.07;;;;;;;;;;5006247;28;20278;-58
2022/09/26 03:32:39;;;;;;;1.27;1.13;;;;;;;;;;5003726;28;20702;-56
2022/09/26 03:35:07;;;;;;;1.50;1.27;;;;;;;;;;5026010;28;20298;-56
2022/09/26 03:37:36;;;;;;;1.70;1.30;;;;;;;;;;5018490;28;20278;-55
2022/09/26 03:40:03;;;;;;;1.43;1.33;;;;;;;;;;5026423;28;20203;-57
2022/09/26 03:42:32;;;;;;;1.47;1.20;;;;;;;;;;5018354;28;20226;-57
2022/09/26 03:45:00;;;;;;;1.30;1.20;;;;;;;;;;5027622;28;20729;-57
2022/09/26 03:47:26;;;;;;;1.60;1.47;;;;;;;;;;5020987;28;21067;-57
2022/09/26 03:49:53;;;;;;;1.67;1.43;;;;;;;;;;5012211;28;20727;-57
2022/09/26 03:52:20;;;;;;;1.40;1.30;;;;;;;;;;5021062;28;20278;-56
2022/09/26 03:54:46;;;;;;;1.40;1.30;;;;;;;;;;5017913;28;20334;-57
2022/09/26 03:57:14;;;;;;;1.40;1.30;;;;;;;;;;5023471;28;20267;-56
2022/09/26 03:59:41;;;;;;;1.70;1.47;;;;;;;;;;5017262;28;20751;-56
2022/09/26 04:02:07;;;;;;;1.30;1.20;;;;;;;;;;5023909;28;20288;-56
2022/09/26 04:04:33;;;;;;;1.30;1.20;;;;;;;;;;5028529;28;20690;-58
2022/09/26 04:07:00;;;;;;;1.50;1.30;;;;;;;;;;5027488;28;20660;-55
2022/09/26 04:09:26;;;;;;;1.50;1.30;;;;;;;;;;5019690;28;20199;-57
2022/09/26 04:11:53;;;;;;;1.30;1.20;;;;;;;;;;5024240;28;20294;-58
2022/09/26 04:14:19;;;;;;;1.20;1.10;;;;;;;;;;5026739;28;20650;-56
2022/09/26 04:16:46;;;;;;;1.53;1.30;;;;;;;;;;5023943;28;20239;-54
2022/09/26 04:19:13;;;;;;;1.60;1.30;;;;;;;;;;5026007;28;20199;-57
2022/09/26 04:21:40;;;;;;;1.67;1.27;;;;;;;;;;5027774;28;20610;-56
2022/09/26 04:24:13;;;;;;;1.30;1.20;;;;;;;;;;5020299;28;20287;-54
2022/09/26 04:26:40;;;;;;;1.30;1.20;;;;;;;;;;5006174;28;20758;-57
2022/09/26 04:29:07;;;;;;;1.30;1.20;;;;;;;;;;5031189;28;20235;-56
2022/09/26 04:31:35;;;;;;;1.97;1.50;;;;;;;;;;5018636;28;20538;-54
2022/09/26 04:34:05;;;;;;;1.37;1.10;;;;;;;;;;5025030;28;20679;-56
2022/09/26 04:36:32;;;;;;;1.30;1.20;;;;;;;;;;5028020;28;20498;-56
2022/09/26 04:38:59;;;;;;;1.60;1.40;;;;;;;;;;5027355;28;20291;-54
2022/09/26 04:41:26;;;;;;;1.07;1.00;;;;;;;;;;5027732;28;20219;-55
2022/09/26 04:43:54;;;;;;;1.30;1.20;;;;;;;;;;5026694;28;20290;-55
2022/09/26 04:46:22;;;;;;;1.40;1.20;;;;;;;;;;5027048;28;20666;-55
2022/09/26 04:48:57;;;;;;;1.43;1.30;;;;;;;;;;5027879;28;20202;-56
2022/09/26 04:51:24;;;;;;;1.40;1.30;;;;;;;;;;5028126;28;20226;-55
2022/09/26 04:53:51;;;;;;;3.47;1.93;;;;;;;;;;5022233;28;20223;-53
2022/09/26 04:56:19;;;;;;;4.17;2.23;;;;;;;;;;5026722;28;20219;-55
2022/09/26 04:58:46;;;;;;;1.23;1.13;;;;;;;;;;5024780;28;20345;-57
2022/09/26 05:01:18;;;;;;;1.37;1.13;;;;;;;;;;5025281;28;20246;-55
2022/09/26 05:03:44;;;;;;;2.60;1.40;;;;;;;;;;5023721;28;20206;-56
2022/09/26 05:06:12;;;;;;;1.30;1.20;;;;;;;;;;5024531;28;20771;-57
2022/09/26 05:08:45;;;;;;;1.20;1.10;;;;;;;;;;5025689;28;20314;-56
2022/09/26 05:11:12;;;;;;;1.20;1.10;;;;;;;;;;5026388;28;20282;-57
2022/09/26 05:13:38;;;;;;;1.40;1.20;;;;;;;;;;5025840;28;20543;-57
2022/09/26 05:16:07;;;;;;;1.30;1.13;;;;;;;;;;5027485;28;20314;-54
2022/09/26 05:18:34;;;;;;;1.40;1.30;;;;;;;;;;5023409;28;20203;-57
2022/09/26 05:21:01;;;;;;;1.40;1.30;;;;;;;;;;5021821;28;20200;-57
2022/09/26 05:26:21;;;;;;;1.40;1.30;;;;;;;;;;5025223;28;20642;-58
2022/09/26 05:29:00;;;;;;;2.57;1.60;;;;;;;;;;5012561;28;20274;-57
2022/09/26 05:31:35;;;;;;;4.83;3.70;;;;;;;;;;5024770;28;20207;-57
2022/09/26 05:34:06;;;;;;;4.10;3.07;;;;;;;;;;5010933;28;20207;-56
2022/09/26 05:36:32;;;;;;;5.80;3.37;;;;;;;;;;5020721;28;20302;-58
2022/09/26 05:38:59;;;;;;;4.37;3.70;;;;;;;;;;5018785;28;20219;-59
2022/09/26 05:41:30;;;;;;;5.57;3.97;;;;;;;;;;5021773;28;20282;-56
2022/09/26 05:43:56;;;;;;;10.50;3.83;;;;;;;;;;5001705;28;20242;-58
2022/09/26 05:46:23;;;;;;;5.37;3.73;;;;;;;;;;5024034;28;20306;-57
2022/09/26 05:48:49;;;;;;;4.93;3.70;;;;;;;;;;5022935;28;20223;-57
2022/09/26 05:51:19;;;;;;;7.77;3.60;;;;;;;;;;5024361;28;20223;-57
2022/09/26 05:53:47;;;;;;;5.27;3.70;;;;;;;;;;5018278;28;20287;-56
2022/09/26 05:56:16;;;;;;;7.20;3.50;;;;;;;;;;5027526;28;20219;-56
2022/09/26 05:58:45;;;;;;;5.47;3.80;;;;;;;;;;5015878;28;20625;-57
2022/09/26 06:01:15;;;;;;;5.87;4.03;;;;;;;;;;5004271;28;20291;-54
2022/09/26 06:03:44;;;;;;;4.20;2.30;;;;;;;;;;5020222;28;20192;-54
2022/09/26 06:06:15;;;;;;;3.10;2.23;;;;;;;;;;5007114;28;20227;-55
2022/09/26 06:08:42;;;;;;;2.80;2.17;;;;;;;;;;5020391;28;20347;-55
2022/09/26 06:11:12;;;;;;;2.63;2.30;;;;;;;;;;5020462;28;20282;-51
2022/09/26 06:13:40;;;;;;;2.80;2.10;;;;;;;;;;5022850;28;20287;-52
2022/09/26 06:16:09;;;;;;;2.87;1.83;;;;;;;;;;5021472;28;20267;-52
2022/09/26 06:18:36;;;;;;;2.10;1.90;;;;;;;;;;5026432;28;20195;-52
2022/09/26 06:21:04;;;;;;;2.90;2.20;;;;;;;;;;5023585;28;20290;-53
2022/09/26 06:23:31;;;;;;;4.20;2.37;;;;;;;;;;5021570;28;20291;-55
2022/09/26 06:25:57;;;;;;;3.37;1.73;;;;;;;;;;5025163;28;20411;-55
2022/09/26 06:28:25;;;;;;;2.17;1.80;;;;;;;;;;5028172;28;20310;-55
2022/09/26 06:30:55;;;;;;;2.53;1.87;;;;;;;;;;5029009;28;20282;-55
2022/09/26 06:33:22;;;;;;;2.67;2.00;;;;;;;;;;5028684;28;20294;-51
2022/09/26 06:36:06;;;;;;;2.63;2.00;;;;;;;;;;5029752;28;20661;-50
2022/09/26 06:38:33;;;;;;;3.33;2.30;;;;;;;;;;5019839;28;20695;-52
2022/09/26 06:40:59;;;;;;;1.90;1.70;;;;;;;;;;5023774;28;20287;-53
2022/09/26 06:43:26;;;;;;;2.70;1.93;;;;;;;;;;5027729;28;20196;-51
2022/09/26 06:45:52;;;;;;;2.00;1.80;;;;;;;;;;5022314;28;20273;-51
2022/09/26 06:48:23;;;;;;;3.47;1.90;;;;;;;;;;5022236;28;20306;-52
2022/09/26 06:50:51;;;;;;;2.93;2.00;;;;;;;;;;5023831;28;20286;-50
2022/09/26 06:53:18;;;;;;;2.43;2.00;;;;;;;;;;5024006;28;20286;-52
2022/09/26 06:55:44;;;;;;;2.20;1.77;;;;;;;;;;5022681;28;20311;-50
2022/09/26 06:58:10;;;;;;;2.50;2.10;;;;;;;;;;5023914;28;20646;-51
2022/09/26 07:00:37;;;;;;;2.13;1.93;;;;;;;;;;5024987;28;20195;-51
2022/09/26 07:03:04;;;;;;;2.23;1.73;;;;;;;;;;5025355;28;20204;-51
2022/09/26 07:05:31;;;;;;;2.20;1.93;;;;;;;;;;5025715;28;20295;-51
2022/09/26 07:07:57;;;;;;;2.30;1.80;;;;;;;;;;5026706;28;20302;-50
2022/09/26 07:10:23;;;;;;;4.50;2.20;;;;;;;;;;5024258;28;20290;-52
2022/09/26 07:12:51;;;;;;;2.17;1.80;;;;;;;;;;5020285;28;20261;-51
2022/09/26 07:15:18;;;;;;;3.63;2.60;;;;;;;;;;5005791;28;20250;-51
2022/09/26 07:17:50;;;;;;;2.33;1.90;;;;;;;;;;5029439;28;20648;-53
2022/09/26 07:20:18;;;;;;;1.73;1.63;;;;;;;;;;5023366;28;20202;-50
2022/09/26 07:22:45;;;;;;;1.83;1.67;;;;;;;;;;5024116;28;20478;-52
2022/09/26 07:25:12;;;;;;;2.30;2.07;;;;;;;;;;5018631;28;20237;-51
2022/09/26 07:27:39;;;;;;;2.93;1.97;;;;;;;;;;5021084;28;20611;-52
2022/09/26 07:30:08;;;;;;;1.97;1.70;;;;;;;;;;5023283;28;20231;-54
2022/09/26 07:32:35;;;;;;;2.47;1.70;;;;;;;;;;5022245;28;20725;-52
2022/09/26 07:35:04;;;;;;;3.33;1.93;;;;;;;;;;5026301;28;20350;-55
2022/09/26 07:37:31;;;;;;;2.53;1.80;;;;;;;;;;5028219;28;20670;-51
2022/09/26 07:39:57;;;;;;;3.60;1.98;;;;;;;;;;5024352;28;20203;-51
2022/09/26 07:42:27;;;;;;;1.42;1.33;;;;;;;;;;5020413;28;20203;-53
2022/09/26 07:44:53;;;;;;;1.77;1.60;;;;;;;;;;5017526;28;20295;-54
2022/09/26 07:50:24;;;;;;;3.78;2.60;;;;;;;;;;5024271;28;20294;-52
2022/09/26 07:52:51;;;;;;;4.07;2.88;;;;;;;;;;5022881;28;20204;-51
2022/09/26 07:55:20;;;;;;;1.58;1.48;;;;;;;;;;5021305;28;20663;-53
2022/09/26 07:57:48;;;;;;;2.55;1.80;;;;;;;;;;5022621;28;20231;-52
2022/09/26 08:00:18;;;;;;;1.73;1.60;;;;;;;;;;5023451;28;20254;-50
2022/09/26 08:02:45;;;;;;;2.35;1.65;;;;;;;;;;5016259;28;20286;-52
2022/09/26 08:05:18;;;;;;;2.53;1.50;;;;;;;;;;5018876;28;20236;-54
2022/09/26 08:07:45;;;;;;;4.32;2.70;;;;;;;;;;5022509;28;20298;-52
2022/09/26 08:10:18;;;;;;;2.08;1.50;;;;;;;;;;5024106;28;20634;-51
2022/09/26 08:12:45;;;;;;;2.95;2.65;;;;;;;;;;5015464;28;20479;-52
2022/09/26 08:15:11;;;;;;;2.13;1.75;;;;;;;;;;5004494;28;20294;-52
2022/09/26 08:17:38;;;;;;;1.90;1.40;;;;;;;;;;5021470;28;20685;-52
2022/09/26 08:20:05;;;;;;;1.58;1.35;;;;;;;;;;5021922;28;20200;-53
2022/09/26 08:22:31;;;;;;;3.00;1.50;;;;;;;;;;5020131;28;20647;-51
2022/09/26 08:24:59;;;;;;;2.60;1.60;;;;;;;;;;5021052;28;20783;-51
2022/09/26 08:27:25;;;;;;;2.38;1.42;;;;;;;;;;5018875;28;20656;-52
2022/09/26 08:29:52;;;;;;;1.42;1.30;;;;;;;;;;5022368;28;20227;-51
2022/09/26 08:32:19;;;;;;;2.00;1.77;;;;;;;;;;5015575;28;20298;-51
2022/09/26 08:34:46;;;;;;;1.92;1.60;;;;;;;;;;5017340;28;20290;-52
2022/09/26 08:37:13;;;;;;;1.80;1.40;;;;;;;;;;5021281;28;20219;-52
2022/09/26 08:39:39;;;;;;;2.17;1.65;;;;;;;;;;5025930;28;20286;-54
2022/09/26 08:42:12;;;;;;;4.25;1.65;;;;;;;;;;5018817;28;20282;-53
2022/09/26 08:46:04;;;;;;;4.50;1.85;;;;;;;;;;5000449;28;20291;-52
2022/09/26 08:47:52;;;;;;;1.77;1.35;;;;;;;;;;5011981;28;20310;-51
2022/09/26 08:50:31;;;;;;;2.35;1.50;;;;;;;;;;5001496;28;20235;-52
2022/09/26 08:53:09;;;;;;;2.63;1.50;;;;;;;;;;4996253;28;20441;-53
2022/09/26 08:55:40;;;;;;;1.40;1.30;;;;;;;;;;4996130;28;20243;-51
2022/09/26 08:58:25;;;;;;;1.30;1.20;;;;;;;;;;5006563;28;20199;-50
2022/09/26 09:00:58;;;;;;;3.33;1.30;;;;;;;;;;5005182;28;20286;-51
2022/09/26 09:03:30;;;;;;;2.55;1.60;;;;;;;;;;5003313;28;20639;-51
2022/09/26 09:06:04;;;;;;;1.23;1.13;;;;;;;;;;5028205;28;20211;-53
2022/09/26 09:08:35;;;;;;;2.05;1.60;;;;;;;;;;5015608;28;20629;-51
2022/09/26 09:11:12;;;;;;;1.73;1.58;;;;;;;;;;5018536;28;20294;-51
2022/09/26 09:14:03;;;;;;;2.38;1.35;;;;;;;;;;5004503;28;20230;-52
2022/09/26 09:16:57;;;;;;;1.40;1.30;;;;;;;;;;5015851;28;20220;-50
2022/09/26 09:19:56;;;;;;;2.03;1.60;;;;;;;;;;5021066;28;20278;-53
2022/09/26 09:22:51;;;;;;;3.35;1.40;;;;;;;;;;4985626;28;20222;-50
2022/09/26 09:25:24;;;;;;;1.70;1.33;;;;;;;;;;4994281;28;20550;-51
2022/09/26 09:27:53;;;;;;;1.92;1.40;;;;;;;;;;5005203;28;20210;-51
2022/09/26 09:30:23;;;;;;;2.45;1.55;;;;;;;;;;5016448;28;20206;-54
2022/09/26 09:32:52;;;;;;;2.58;1.40;;;;;;;;;;5015257;28;20283;-51
2022/09/26 09:35:24;;;;;;;1.77;1.30;;;;;;;;;;5019013;28;20806;-52
2022/09/26 09:37:52;;;;;;;3.03;1.35;;;;;;;;;;5019238;28;20241;-53
2022/09/26 09:40:27;;;;;;;1.95;1.50;;;;;;;;;;5023900;28;20278;-53
2022/09/26 09:43:04;;;;;;;1.30;1.20;;;;;;;;;;5007384;28;20307;-51
2022/09/26 09:45:39;;;;;;;1.80;1.23;;;;;;;;;;5017490;28;20302;-52
2022/09/26 09:48:10;;;;;;;1.25;1.15;;;;;;;;;;5004940;28;20731;-53
2022/09/26 09:50:45;;;;;;;1.35;1.25;;;;;;;;;;5025610;28;20742;-51
2022/09/26 09:53:28;;;;;;;1.45;1.27;;;;;;;;;;5006764;28;20285;-53
2022/09/26 09:56:03;;;;;;;1.45;1.13;;;;;;;;;;5007999;28;20610;-51
2022/09/26 09:58:42;;;;;;;2.22;1.10;;;;;;;;;;5025351;28;20290;-50
2022/09/26 10:01:24;;;;;;;1.70;1.20;;;;;;;;;;5002718;28;20213;-54
2022/09/26 10:04:02;;;;;;;1.27;1.10;;;;;;;;;;5021187;28;20230;-52
2022/09/26 10:06:32;;;;;;;1.85;1.75;;;;;;;;;;5017507;28;20313;-51
2022/09/26 10:09:28;;;;;;;2.58;1.30;;;;;;;;;;5018451;28;20649;-52
2022/09/26 10:12:12;;;;;;;3.08;1.20;;;;;;;;;;5009996;28;20206;-52
2022/09/26 10:14:59;;;;;;;1.88;1.27;;;;;;;;;;5023939;28;20235;-51
2022/09/26 10:17:26;;;;;;;1.60;1.27;;;;;;;;;;5005126;28;20572;-52
2022/09/26 10:19:53;;;;;;;3.53;1.23;;;;;;;;;;5027848;28;20743;-53
2022/09/26 10:22:28;;;;;;;1.60;1.23;;;;;;;;;;5014248;28;20290;-52
2022/09/26 10:25:21;;;;;;;1.35;1.00;;;;;;;;;;5024140;28;20286;-53
2022/09/26 10:27:50;;;;;;;1.20;1.10;;;;;;;;;;5006070;28;20765;-54
2022/09/26 10:30:17;;;;;;;1.42;1.17;;;;;;;;;;5022130;28;20242;-55
2022/09/26 10:32:46;;;;;;;1.77;1.27;;;;;;;;;;5022405;28;20238;-52
2022/09/26 10:35:17;;;;;;;1.90;1.55;;;;;;;;;;5005631;28;20196;-51
2022/09/26 10:37:57;;;;;;;1.55;1.23;;;;;;;;;;5021025;28;20307;-51
2022/09/26 10:40:44;;;;;;;1.92;1.48;;;;;;;;;;5027461;28;20762;-52
2022/09/26 10:43:32;;;;;;;2.33;1.42;;;;;;;;;;5023108;28;20230;-53
2022/09/26 10:46:09;;;;;;;2.45;1.15;;;;;;;;;;5022509;28;20216;-54
2022/09/26 10:48:48;;;;;;;2.15;1.45;;;;;;;;;;4985524;28;20223;-52
2022/09/26 10:51:40;;;;;;;3.03;1.42;;;;;;;;;;5020555;28;20208;-53
2022/09/26 10:54:18;;;;;;;2.33;1.60;;;;;;;;;;5024997;28;20632;-49
2022/09/26 10:56:48;;;;;;;3.17;1.50;;;;;;;;;;5002656;28;20218;-54
2022/09/26 10:59:16;;;;;;;1.88;1.60;;;;;;;;;;5000637;28;20202;-51
2022/09/26 11:01:47;;;;;;;2.10;1.63;;;;;;;;;;5012718;28;20330;-52
2022/09/26 11:05:55;;;;;;;2.67;1.73;;;;;;;;;;5019498;28;20283;-52
2022/09/26 11:07:05;;;;;;;3.30;1.70;;;;;;;;;;5017449;28;20875;-49
2022/09/26 11:09:31;;;;;;;4.15;1.63;;;;;;;;;;5004661;28;20273;-51
2022/09/26 11:11:57;;;;;;;3.22;1.73;;;;;;;;;;5012537;28;20225;-53
2022/09/26 11:14:29;;;;;;;3.22;2.33;;;;;;;;;;5016199;28;20311;-53
2022/09/26 11:16:56;;;;;;;3.53;1.83;;;;;;;;;;5017128;28;20251;-53
2022/09/26 11:19:47;;;;;;;2.88;1.70;;;;;;;;;;5016146;28;20195;-53
2022/09/26 11:22:27;;;;;;;2.95;1.80;;;;;;;;;;5016551;28;20739;-54
2022/09/26 11:24:58;;;;;;;3.20;1.73;;;;;;;;;;5014648;28;20203;-52
2022/09/26 11:27:42;;;;;;;3.15;1.80;;;;;;;;;;4998170;28;20295;-55
2022/09/26 11:30:18;;;;;;;3.15;1.75;;;;;;;;;;5001173;28;20224;-54
2022/09/26 11:32:47;;;;;;;2.30;1.42;;;;;;;;;;5015934;28;20297;-54
2022/09/26 11:35:42;;;;;;;2.67;1.60;;;;;;;;;;4995932;28;20225;-54
2022/09/26 11:38:37;;;;;;;2.03;1.60;;;;;;;;;;5004369;28;20290;-56
2022/09/26 11:41:37;;;;;;;3.15;1.55;;;;;;;;;;5001935;28;20221;-53
2022/09/26 11:44:22;;;;;;;3.85;1.58;;;;;;;;;;5027714;28;20373;-55
2022/09/26 11:47:12;;;;;;;2.80;1.40;;;;;;;;;;5024515;28;20250;-56
2022/09/26 11:50:10;;;;;;;2.10;1.48;;;;;;;;;;5021100;28;20715;-53
2022/09/26 11:53:00;;;;;;;2.88;1.30;;;;;;;;;;5006365;28;20307;-56
2022/09/26 11:55:36;;;;;;;2.38;1.38;;;;;;;;;;5023099;28;20306;-52
2022/09/26 11:58:37;;;;;;;1.85;1.33;;;;;;;;;;5024203;28;20647;-55
2022/09/26 12:01:19;;;;;;;1.70;1.13;;;;;;;;;;5025055;28;20290;-52
2022/09/26 12:04:01;;;;;;;2.78;1.40;;;;;;;;;;5019135;28;20675;-53
2022/09/26 12:06:35;;;;;;;3.78;1.70;;;;;;;;;;5005634;28;20273;-55
2022/09/26 12:09:36;;;;;;;2.45;1.50;;;;;;;;;;5002710;28;20639;-51
2022/09/26 12:12:16;;;;;;;3.08;1.17;;;;;;;;;;5026200;28;20291;-52
2022/09/26 12:14:42;;;;;;;1.98;1.40;;;;;;;;;;5020623;28;20267;-55
2022/09/26 12:17:40;;;;;;;4.13;1.50;;;;;;;;;;5025633;28;20219;-56
2022/09/26 12:20:17;;;;;;;1.40;1.08;;;;;;;;;;4996094;28;20695;-51
2022/09/26 12:23:05;;;;;;;1.30;1.20;;;;;;;;;;5009084;28;20199;-54
2022/09/26 12:25:39;;;;;;;2.03;1.30;;;;;;;;;;5004092;28;20215;-54
2022/09/26 12:28:22;;;;;;;1.83;1.30;;;;;;;;;;5024756;28;20944;-54
2022/09/26 12:31:19;;;;;;;2.83;1.20;;;;;;;;;;5005870;28;20310;-52
2022/09/26 12:33:59;;;;;;;1.23;1.13;;;;;;;;;;5006612;28;20687;-54
2022/09/26 12:36:46;;;;;;;2.38;1.10;;;;;;;;;;5006159;28;20665;-55
2022/09/26 12:39:36;;;;;;;2.33;1.30;;;;;;;;;;5025308;28;20203;-53
2022/09/26 12:42:23;;;;;;;3.13;1.27;;;;;;;;;;5002145;28;20239;-51
2022/09/26 12:45:16;;;;;;;1.73;1.20;;;;;;;;;;5021567;28;20284;-53
2022/09/26 12:48:06;;;;;;;1.73;1.13;;;;;;;;;;4985099;28;20218;-51
2022/09/26 12:50:38;;;;;;;2.95;1.05;;;;;;;;;;5025486;28;20222;-52
2022/09/26 12:53:18;;;;;;;2.65;1.50;;;;;;;;;;5018330;28;20204;-53
2022/09/26 12:56:00;;;;;;;2.45;1.40;;;;;;;;;;5021829;28;20215;-51
2022/09/26 12:58:32;;;;;;;2.90;1.20;;;;;;;;;;5021740;28;20199;-50
2022/09/26 13:01:10;;;;;;;3.80;1.95;;;;;;;;;;4989581;28;20374;-49
2022/09/26 13:04:00;;;;;;;1.20;1.10;;;;;;;;;;5022806;28;20285;-54
2022/09/26 13:07:03;;;;;;;3.55;1.55;;;;;;;;;;4984259;28;20286;-56
2022/09/26 13:10:11;;;;;;;1.73;1.38;;;;;;;;;;5021239;28;20310;-51
2022/09/26 13:12:55;;;;;;;1.90;1.20;;;;;;;;;;5024437;28;20294;-52
2022/09/26 13:15:30;;;;;;;2.03;1.48;;;;;;;;;;5019762;28;20303;-54
2022/09/26 13:18:27;;;;;;;2.85;1.48;;;;;;;;;;5007399;28;20310;-52
2022/09/26 13:21:05;;;;;;;2.72;1.48;;;;;;;;;;5021848;28;20190;-55
2022/09/26 13:23:39;;;;;;;1.85;1.35;;;;;;;;;;5026087;28;20735;-53
2022/09/26 13:26:30;;;;;;;2.90;1.38;;;;;;;;;;5002989;28;20302;-52
2022/09/26 13:29:02;;;;;;;2.05;1.08;;;;;;;;;;5024483;28;20679;-54
2022/09/26 13:31:46;;;;;;;1.80;1.30;;;;;;;;;;5004525;28;20195;-55
2022/09/26 13:34:18;;;;;;;1.58;1.20;;;;;;;;;;5008473;28;20207;-50
2022/09/26 13:36:45;;;;;;;3.90;1.50;;;;;;;;;;5004876;28;20788;-53
2022/09/26 13:39:27;;;;;;;4.28;1.40;;;;;;;;;;4987500;28;20287;-54
2022/09/26 13:42:14;;;;;;;2.63;1.10;;;;;;;;;;5020185;28;20291;-55
2022/09/26 13:44:58;;;;;;;1.98;1.08;;;;;;;;;;5003320;28;20229;-55
2022/09/26 13:47:35;;;;;;;4.75;1.35;;;;;;;;;;5002498;28;20298;-53
2022/09/26 13:50:29;;;;;;;2.47;1.40;;;;;;;;;;5004881;28;20302;-51
2022/09/26 13:53:25;;;;;;;2.85;1.30;;;;;;;;;;5020227;28;20204;-55
2022/09/26 13:56:29;;;;;;;1.90;1.20;;;;;;;;;;5023808;28;20251;-52
2022/09/26 13:59:16;;;;;;;1.67;1.10;;;;;;;;;;5015815;28;20203;-52
2022/09/26 14:02:23;;;;;;;2.75;1.17;;;;;;;;;;4982692;28;20284;-53
2022/09/26 14:04:52;;;;;;;2.22;1.30;;;;;;;;;;5016251;28;20200;-51
2022/09/26 14:10:38;;;;;;;2.05;1.20;;;;;;;;;;5016830;28;20609;-50
2022/09/26 14:13:14;;;;;;;2.30;1.30;;;;;;;;;;5014536;28;20239;-52
2022/09/26 14:15:49;;;;;;;1.92;1.30;;;;;;;;;;5016029;28;20215;-52
2022/09/26 14:18:44;;;;;;;2.42;1.52;;;;;;;;;;5012363;28;20274;-54
2022/09/26 14:21:16;;;;;;;4.32;1.30;;;;;;;;;;5017401;28;20303;-51
2022/09/26 14:23:45;;;;;;;2.90;1.42;;;;;;;;;;4999147;28;20295;-51
2022/09/26 14:26:27;;;;;;;2.78;1.20;;;;;;;;;;5014308;28;20251;-53
2022/09/26 14:28:55;;;;;;;2.28;1.20;;;;;;;;;;5003323;28;20651;-51
2022/09/26 14:31:24;;;;;;;1.88;1.20;;;;;;;;;;5002879;28;20698;-50
2022/09/26 14:34:22;;;;;;;2.63;1.45;;;;;;;;;;5019116;28;20278;-52
2022/09/26 14:36:51;;;;;;;3.38;1.10;;;;;;;;;;5006931;28;20215;-51
2022/09/26 14:39:25;;;;;;;2.58;1.45;;;;;;;;;;5026920;28;20235;-51
2022/09/26 14:41:52;;;;;;;1.77;1.10;;;;;;;;;;5003603;28;20202;-52
2022/09/26 14:44:19;;;;;;;2.47;1.20;;;;;;;;;;5008527;28;21608;-51
2022/09/26 14:46:52;;;;;;;2.03;1.20;;;;;;;;;;5007833;28;20225;-52
2022/09/26 14:49:24;;;;;;;1.95;1.00;;;;;;;;;;5027998;28;20791;-50
2022/09/26 14:51:58;;;;;;;2.28;1.00;;;;;;;;;;5025200;28;20289;-52
2022/09/26 14:54:36;;;;;;;1.25;0.90;;;;;;;;;;5019587;28;20234;-51
2022/09/26 14:57:08;;;;;;;2.38;0.95;;;;;;;;;;5010172;28;20307;-50
2022/09/26 14:59:34;;;;;;;1.65;1.00;;;;;;;;;;5004476;28;20283;-54
2022/09/26 15:02:13;;;;;;;1.38;1.10;;;;;;;;;;5025073;28;20200;-51
2022/09/26 15:04:41;;;;;;;2.13;0.90;;;;;;;;;;5025366;28;20286;-51
2022/09/26 15:07:15;;;;;;;1.65;0.80;;;;;;;;;;5008321;28;20302;-51
2022/09/26 15:09:46;;;;;;;3.03;1.40;;;;;;;;;;5024267;28;20258;-52
2022/09/26 15:12:16;;;;;;;2.10;1.00;;;;;;;;;;5009036;28;20285;-53
2022/09/26 15:14:54;;;;;;;2.55;1.52;;;;;;;;;;5005463;28;20294;-54
2022/09/26 15:17:30;;;;;;;2.15;0.90;;;;;;;;;;5019794;28;20298;-52
2022/09/26 15:19:59;;;;;;;1.63;1.00;;;;;;;;;;5008185;28;20284;-51
2022/09/26 15:22:28;;;;;;;2.42;1.00;;;;;;;;;;5008858;28;20227;-54
2022/09/26 15:25:09;;;;;;;2.22;1.08;;;;;;;;;;5009586;28;20730;-52
2022/09/26 15:27:35;;;;;;;1.58;0.88;;;;;;;;;;5024284;28;20279;-53
2022/09/26 15:30:31;;;;;;;2.40;0.88;;;;;;;;;;5025247;28;20212;-55
2022/09/26 15:33:02;;;;;;;1.48;1.00;;;;;;;;;;5023231;28;20203;-53
2022/09/26 15:35:29;;;;;;;1.45;0.90;;;;;;;;;;5026076;28;20791;-55
2022/09/26 15:38:03;;;;;;;3.30;1.20;;;;;;;;;;5006987;28;20322;-50